createdAt,value
2018-02-15T00:00:25.107Z,4.13
2018-02-15T00:01:25.394Z,4.13
2018-02-15T00:02:25.109Z,4.13
2018-02-15T00:03:25.403Z,4.14
2018-02-15T00:04:25.128Z,4.12
2018-02-15T00:05:25.135Z,4.1
2018-02-15T00:06:25.153Z,4.16
2018-02-15T00:07:25.156Z,4.1
2018-02-15T00:08:25.468Z,4.05
2018-02-15T00:09:25.457Z,4.05
2018-02-15T00:10:25.471Z,4.05
2018-02-15T00:11:25.199Z,4.06
2018-02-15T00:12:25.217Z,4.06
2018-02-15T00:13:24.944Z,3.98
2018-02-15T00:14:25.219Z,3.99
2018-02-15T00:15:25.231Z,3.96
2018-02-15T00:16:25.519Z,4.05
2018-02-15T00:17:25.315Z,4.01
2018-02-15T00:18:24.977Z,4.05
2018-02-15T00:19:25.283Z,4.01
2018-02-15T00:20:25.276Z,4.08
2018-02-15T00:21:25.616Z,4.08
2018-02-15T00:22:25.576Z,4.05
2018-02-15T00:23:25.582Z,3.92
2018-02-15T00:24:25.324Z,3.99
2018-02-15T00:25:25.619Z,4.08
2018-02-15T00:26:25.332Z,3.98
2018-02-15T00:27:25.343Z,4.04
2018-02-15T00:28:25.350Z,3.94
2018-02-15T00:29:25.079Z,4.02
2018-02-15T00:30:25.653Z,4.01
2018-02-15T00:31:25.387Z,3.95
2018-02-15T00:32:25.389Z,3.95
2018-02-15T00:33:25.400Z,3.98
2018-02-15T00:34:25.132Z,3.88
2018-02-15T00:35:25.701Z,3.91
2018-02-15T00:36:25.711Z,3.86
2018-02-15T00:37:25.164Z,3.92
2018-02-15T00:38:25.164Z,3.86
2018-02-15T00:39:25.465Z,3.84
2018-02-15T00:40:25.747Z,3.91
2018-02-15T00:41:25.476Z,3.88
2018-02-15T00:42:25.767Z,3.91
2018-02-15T00:43:25.507Z,3.91
2018-02-15T00:44:25.509Z,3.88
2018-02-15T00:45:25.509Z,3.88
2018-02-15T00:46:25.520Z,3.84
2018-02-15T00:47:25.827Z,3.91
2018-02-15T00:48:25.545Z,3.87
2018-02-15T00:49:25.846Z,3.86
2018-02-15T00:50:25.834Z,3.87
2018-02-15T00:51:25.567Z,3.86
2018-02-15T00:52:25.293Z,3.88
2018-02-15T00:53:25.314Z,3.87
2018-02-15T00:54:25.591Z,3.91
2018-02-15T00:55:25.611Z,3.94
2018-02-15T00:56:25.340Z,3.84
2018-02-15T00:57:25.904Z,3.74
2018-02-15T00:58:25.631Z,3.77
2018-02-15T00:59:25.925Z,3.74
2018-02-15T01:00:25.657Z,3.81
2018-02-15T01:01:25.941Z,3.8
2018-02-15T01:02:25.387Z,3.77
2018-02-15T01:03:25.394Z,3.8
2018-02-15T01:04:25.682Z,3.77
2018-02-15T01:05:25.697Z,3.81
2018-02-15T01:06:25.752Z,3.86
2018-02-15T01:07:25.725Z,3.83
2018-02-15T01:08:25.721Z,3.8
2018-02-15T01:09:26.015Z,3.84
2018-02-15T01:10:25.741Z,3.84
2018-02-15T01:11:25.753Z,3.81
2018-02-15T01:12:25.761Z,3.81
2018-02-15T01:13:25.770Z,3.76
2018-02-15T01:14:25.778Z,3.78
2018-02-15T01:15:25.791Z,3.74
2018-02-15T01:16:25.803Z,3.81
2018-02-15T01:17:26.088Z,3.7
2018-02-15T01:18:25.532Z,3.66
2018-02-15T01:19:25.829Z,3.73
2018-02-15T01:20:26.121Z,3.8
2018-02-15T01:21:25.839Z,3.81
2018-02-15T01:22:25.847Z,3.7
2018-02-15T01:23:25.860Z,3.78
2018-02-15T01:24:25.589Z,3.78
2018-02-15T01:25:25.886Z,3.7
2018-02-15T01:26:25.938Z,3.74
2018-02-15T01:27:26.177Z,3.76
2018-02-15T01:28:25.912Z,3.73
2018-02-15T01:29:25.641Z,3.66
2018-02-15T01:30:25.924Z,3.68
2018-02-15T01:31:25.992Z,3.68
2018-02-15T01:32:25.944Z,3.65
2018-02-15T01:33:25.946Z,3.74
2018-02-15T01:34:25.970Z,3.68
2018-02-15T01:35:25.970Z,3.68
2018-02-15T01:36:26.260Z,3.63
2018-02-15T01:37:26.311Z,3.66
2018-02-15T01:38:25.713Z,3.66
2018-02-15T01:39:26.207Z,3.68
2018-02-15T01:40:25.740Z,3.66
2018-02-15T01:41:26.021Z,3.66
2018-02-15T01:42:25.768Z,3.62
2018-02-15T01:43:26.039Z,3.66
2018-02-15T01:44:26.055Z,3.7
2018-02-15T01:45:26.060Z,3.62
2018-02-15T01:46:26.098Z,3.65
2018-02-15T01:47:26.077Z,3.69
2018-02-15T01:48:26.096Z,3.69
2018-02-15T01:49:26.376Z,3.65
2018-02-15T01:50:26.103Z,3.62
2018-02-15T01:51:26.115Z,3.69
2018-02-15T01:52:25.841Z,3.65
2018-02-15T01:53:26.131Z,3.62
2018-02-15T01:54:25.864Z,3.53
2018-02-15T01:55:26.151Z,3.59
2018-02-15T01:56:26.442Z,3.56
2018-02-15T01:57:26.167Z,3.65
2018-02-15T01:58:26.457Z,3.6
2018-02-15T01:59:26.185Z,3.59
2018-02-15T02:00:26.473Z,3.62
2018-02-15T02:01:26.205Z,3.66
2018-02-15T02:02:26.495Z,3.53
2018-02-15T02:03:26.218Z,3.5
2018-02-15T02:04:26.518Z,3.5
2018-02-15T02:05:26.520Z,3.53
2018-02-15T02:06:25.974Z,3.48
2018-02-15T02:07:25.979Z,3.53
2018-02-15T02:08:26.602Z,3.5
2018-02-15T02:09:25.994Z,3.55
2018-02-15T02:10:26.295Z,3.58
2018-02-15T02:11:26.012Z,3.5
2018-02-15T02:12:26.306Z,3.48
2018-02-15T02:13:26.035Z,3.51
2018-02-15T02:14:26.322Z,3.59
2018-02-15T02:15:26.610Z,3.45
2018-02-15T02:16:26.668Z,3.5
2018-02-15T02:17:26.064Z,3.51
2018-02-15T02:18:26.373Z,3.42
2018-02-15T02:19:26.361Z,3.48
2018-02-15T02:20:26.092Z,3.47
2018-02-15T02:21:26.475Z,3.48
2018-02-15T02:22:26.673Z,3.41
2018-02-15T02:23:26.128Z,3.5
2018-02-15T02:24:26.412Z,3.45
2018-02-15T02:25:26.415Z,3.42
2018-02-15T02:26:26.434Z,3.45
2018-02-15T02:27:26.437Z,3.44
2018-02-15T02:28:26.450Z,3.44
2018-02-15T02:29:26.174Z,3.36
2018-02-15T02:30:26.538Z,3.55
2018-02-15T02:31:26.763Z,3.42
2018-02-15T02:32:26.479Z,3.47
2018-02-15T02:33:26.494Z,3.42
2018-02-15T02:34:26.582Z,3.4
2018-02-15T02:35:26.515Z,3.41
2018-02-15T02:36:26.516Z,3.44
2018-02-15T02:37:26.812Z,3.37
2018-02-15T02:38:26.824Z,3.41
2018-02-15T02:39:26.262Z,3.41
2018-02-15T02:40:26.555Z,3.42
2018-02-15T02:41:26.852Z,3.42
2018-02-15T02:42:26.580Z,3.42
2018-02-15T02:43:26.599Z,3.31
2018-02-15T02:44:26.591Z,3.29
2018-02-15T02:45:26.881Z,3.31
2018-02-15T02:46:26.611Z,3.41
2018-02-15T02:47:26.332Z,3.29
2018-02-15T02:48:26.626Z,3.28
2018-02-15T02:49:26.638Z,3.32
2018-02-15T02:50:26.356Z,3.32
2018-02-15T02:51:26.366Z,3.36
2018-02-15T02:52:26.962Z,3.31
2018-02-15T02:53:26.674Z,3.36
2018-02-15T02:54:26.964Z,3.28
2018-02-15T02:55:26.695Z,3.32
2018-02-15T02:56:26.992Z,3.31
2018-02-15T02:57:26.982Z,3.32
2018-02-15T02:58:27.001Z,3.25
2018-02-15T02:59:26.719Z,3.29
2018-02-15T03:00:26.738Z,3.31
2018-02-15T03:01:26.746Z,3.31
2018-02-15T03:02:27.047Z,3.29
2018-02-15T03:03:26.757Z,3.25
2018-02-15T03:04:26.788Z,3.26
2018-02-15T03:05:26.824Z,3.28
2018-02-15T03:06:26.517Z,3.28
2018-02-15T03:07:26.796Z,3.36
2018-02-15T03:08:26.803Z,3.32
2018-02-15T03:09:26.814Z,3.36
2018-02-15T03:10:26.814Z,3.26
2018-02-15T03:11:27.107Z,3.32
2018-02-15T03:12:27.068Z,3.23
2018-02-15T03:13:26.841Z,3.26
2018-02-15T03:14:26.855Z,3.23
2018-02-15T03:15:26.916Z,3.34
2018-02-15T03:16:26.587Z,3.28
2018-02-15T03:17:26.888Z,3.29
2018-02-15T03:18:26.888Z,3.22
2018-02-15T03:19:26.613Z,3.26
2018-02-15T03:20:26.903Z,3.25
2018-02-15T03:21:26.912Z,3.11
2018-02-15T03:22:27.127Z,3.19
2018-02-15T03:23:27.213Z,3.28
2018-02-15T03:24:26.673Z,3.21
2018-02-15T03:25:26.948Z,3.18
2018-02-15T03:26:26.962Z,3.23
2018-02-15T03:27:26.686Z,3.25
2018-02-15T03:28:26.694Z,3.19
2018-02-15T03:29:26.712Z,3.23
2018-02-15T03:30:27.282Z,3.22
2018-02-15T03:31:27.004Z,3.22
2018-02-15T03:32:26.730Z,3.23
2018-02-15T03:33:26.737Z,3.21
2018-02-15T03:34:27.338Z,3.25
2018-02-15T03:35:27.340Z,3.21
2018-02-15T03:36:27.046Z,3.18
2018-02-15T03:37:27.076Z,3.13
2018-02-15T03:38:27.360Z,3.21
2018-02-15T03:39:27.088Z,3.22
2018-02-15T03:40:27.083Z,3.22
2018-02-15T03:41:27.378Z,3.23
2018-02-15T03:42:27.096Z,3.23
2018-02-15T03:43:27.404Z,3.18
2018-02-15T03:44:27.114Z,3.21
2018-02-15T03:45:27.147Z,3.23
2018-02-15T03:46:26.868Z,3.19
2018-02-15T03:47:27.138Z,3.16
2018-02-15T03:48:26.866Z,3.25
2018-02-15T03:49:27.160Z,3.1
2018-02-15T03:50:27.166Z,3.16
2018-02-15T03:51:27.177Z,3.23
2018-02-15T03:52:27.464Z,3.16
2018-02-15T03:53:27.475Z,3.18
2018-02-15T03:54:27.497Z,3.21
2018-02-15T03:55:26.944Z,3.18
2018-02-15T03:56:27.961Z,3.1
2018-02-15T03:57:26.958Z,3.19
2018-02-15T03:58:27.516Z,3.08
2018-02-15T03:59:27.267Z,3.14
2018-02-15T04:00:27.250Z,3.1
2018-02-15T04:01:27.544Z,3.11
2018-02-15T04:02:26.993Z,3.14
2018-02-15T04:03:27.288Z,3.16
2018-02-15T04:04:27.288Z,3.16
2018-02-15T04:05:27.580Z,3.18
2018-02-15T04:06:27.037Z,3.14
2018-02-15T04:07:27.034Z,3.16
2018-02-15T04:08:27.599Z,3.13
2018-02-15T04:09:27.332Z,3.11
2018-02-15T04:10:27.624Z,3.14
2018-02-15T04:11:27.630Z,3.22
2018-02-15T04:12:27.509Z,3.13
2018-02-15T04:13:27.388Z,3.1
2018-02-15T04:14:27.094Z,3.13
2018-02-15T04:15:27.139Z,3.14
2018-02-15T04:16:27.392Z,3.13
2018-02-15T04:17:27.739Z,3.11
2018-02-15T04:18:27.697Z,3.18
2018-02-15T04:19:27.419Z,3.18
2018-02-15T04:20:27.707Z,3.11
2018-02-15T04:21:27.152Z,3.13
2018-02-15T04:22:27.160Z,3.13
2018-02-15T04:23:27.778Z,3.16
2018-02-15T04:24:27.181Z,3.13
2018-02-15T04:25:27.200Z,3.05
2018-02-15T04:26:27.195Z,3.16
2018-02-15T04:27:27.489Z,3.14
2018-02-15T04:28:27.508Z,3.18
2018-02-15T04:29:27.501Z,3.19
2018-02-15T04:30:27.509Z,3.08
2018-02-15T04:31:27.802Z,3.08
2018-02-15T04:32:27.863Z,3.1
2018-02-15T04:33:27.253Z,3.1
2018-02-15T04:34:27.577Z,3.14
2018-02-15T04:35:27.566Z,3.1
2018-02-15T04:36:27.562Z,3.13
2018-02-15T04:37:27.618Z,3.1
2018-02-15T04:38:27.864Z,3.11
2018-02-15T04:39:27.873Z,3.16
2018-02-15T04:40:27.598Z,3.1
2018-02-15T04:41:27.895Z,3.07
2018-02-15T04:42:27.615Z,3.07
2018-02-15T04:43:27.343Z,3.08
2018-02-15T04:44:27.632Z,3.07
2018-02-15T04:45:27.641Z,3.14
2018-02-15T04:46:27.649Z,3.18
2018-02-15T04:47:27.657Z,3.23
2018-02-15T04:48:27.950Z,3.1
2018-02-15T04:49:27.679Z,3.16
2018-02-15T04:50:27.969Z,3.08
2018-02-15T04:51:27.411Z,3.18
2018-02-15T04:52:27.986Z,3.03
2018-02-15T04:53:27.709Z,3.16
2018-02-15T04:54:28.003Z,3.16
2018-02-15T04:55:27.731Z,3.1
2018-02-15T04:56:27.739Z,3.04
2018-02-15T04:57:27.793Z,3.21
2018-02-15T04:58:27.756Z,3.14
2018-02-15T04:59:27.480Z,3.1
2018-02-15T05:00:28.062Z,3.19
2018-02-15T05:01:28.059Z,3.11
2018-02-15T05:02:27.785Z,3.04
2018-02-15T05:03:28.279Z,3.01
2018-02-15T05:04:27.811Z,3.1
2018-02-15T05:05:27.811Z,3.18
2018-02-15T05:06:27.823Z,3.08
2018-02-15T05:07:28.110Z,3.14
2018-02-15T05:08:28.122Z,3.08
2018-02-15T05:09:27.570Z,3.14
2018-02-15T05:10:28.143Z,3.14
2018-02-15T05:11:27.863Z,3.18
2018-02-15T05:12:27.869Z,3.1
2018-02-15T05:13:28.160Z,3.18
2018-02-15T05:14:27.609Z,3.1
2018-02-15T05:15:27.898Z,3.11
2018-02-15T05:16:28.198Z,3.1
2018-02-15T05:17:27.914Z,3.14
2018-02-15T05:18:27.955Z,3.14
2018-02-15T05:19:27.930Z,3.16
2018-02-15T05:20:27.986Z,3.18
2018-02-15T05:21:27.953Z,3.14
2018-02-15T05:22:28.240Z,3.16
2018-02-15T05:23:27.972Z,3.07
2018-02-15T05:24:27.991Z,3.16
2018-02-15T05:25:27.705Z,3.14
2018-02-15T05:26:27.989Z,3.14
2018-02-15T05:27:28.002Z,3.21
2018-02-15T05:28:28.294Z,3.21
2018-02-15T05:29:28.296Z,3.14
2018-02-15T05:30:28.307Z,3.14
2018-02-15T05:31:28.035Z,3.19
2018-02-15T05:32:28.048Z,3.19
2018-02-15T05:33:28.050Z,3.13
2018-02-15T05:34:28.616Z,3.07
2018-02-15T05:35:27.786Z,3.18
2018-02-15T05:36:28.369Z,3.11
2018-02-15T05:37:28.376Z,3.23
2018-02-15T05:38:28.096Z,3.16
2018-02-15T05:39:28.101Z,3.16
2018-02-15T05:40:27.828Z,3.21
2018-02-15T05:41:28.119Z,3.23
2018-02-15T05:42:27.847Z,3.18
2018-02-15T05:43:27.877Z,3.18
2018-02-15T05:44:27.872Z,3.23
2018-02-15T05:45:27.882Z,3.11
2018-02-15T05:46:28.167Z,3.19
2018-02-15T05:47:28.181Z,3.16
2018-02-15T05:48:27.902Z,3.19
2018-02-15T05:49:28.199Z,3.14
2018-02-15T05:50:28.199Z,3.21
2018-02-15T05:51:28.492Z,3.28
2018-02-15T05:52:28.215Z,3.28
2018-02-15T05:53:28.534Z,3.19
2018-02-15T05:54:28.236Z,3.18
2018-02-15T05:55:28.256Z,3.19
2018-02-15T05:56:28.529Z,3.28
2018-02-15T05:57:28.537Z,3.18
2018-02-15T05:58:27.988Z,3.19
2018-02-15T05:59:28.283Z,3.18
2018-02-15T06:00:28.565Z,3.21
2018-02-15T06:01:28.294Z,3.13
2018-02-15T06:02:28.320Z,3.16
2018-02-15T06:03:28.368Z,3.21
2018-02-15T06:04:28.318Z,3.23
2018-02-15T06:05:28.621Z,3.28
2018-02-15T06:06:28.737Z,3.21
2018-02-15T06:07:28.091Z,3.22
2018-02-15T06:08:28.100Z,3.23
2018-02-15T06:09:28.410Z,3.25
2018-02-15T06:10:28.694Z,3.23
2018-02-15T06:11:28.424Z,3.21
2018-02-15T06:12:28.731Z,3.25
2018-02-15T06:13:28.447Z,3.16
2018-02-15T06:14:28.439Z,3.19
2018-02-15T06:15:28.160Z,3.23
2018-02-15T06:16:28.744Z,3.23
2018-02-15T06:17:28.470Z,3.21
2018-02-15T06:18:28.486Z,3.21
2018-02-15T06:19:28.772Z,3.22
2018-02-15T06:20:28.519Z,3.22
2018-02-15T06:21:28.215Z,3.26
2018-02-15T06:22:28.716Z,3.25
2018-02-15T06:23:28.569Z,3.21
2018-02-15T06:24:28.535Z,3.23
2018-02-15T06:25:28.542Z,3.32
2018-02-15T06:26:28.547Z,3.23
2018-02-15T06:27:28.554Z,3.31
2018-02-15T06:28:28.561Z,3.32
2018-02-15T06:29:28.857Z,3.31
2018-02-15T06:30:28.577Z,3.25
2018-02-15T06:31:28.585Z,3.31
2018-02-15T06:32:28.593Z,3.28
2018-02-15T06:33:28.940Z,3.28
2018-02-15T06:34:29.254Z,3.25
2018-02-15T06:35:28.909Z,3.29
2018-02-15T06:36:28.626Z,3.29
2018-02-15T06:37:28.453Z,3.26
2018-02-15T06:38:28.722Z,3.26
2018-02-15T06:39:28.367Z,3.31
2018-02-15T06:40:28.665Z,3.29
2018-02-15T06:41:28.586Z,3.26
2018-02-15T06:42:28.682Z,3.31
2018-02-15T06:43:28.689Z,3.32
2018-02-15T06:44:28.696Z,3.29
2018-02-15T06:45:28.439Z,3.32
2018-02-15T06:46:28.725Z,3.37
2018-02-15T06:47:29.010Z,3.28
2018-02-15T06:48:28.444Z,3.29
2018-02-15T06:49:28.744Z,3.29
2018-02-15T06:50:29.035Z,3.32
2018-02-15T06:51:28.758Z,3.28
2018-02-15T06:52:28.770Z,3.34
2018-02-15T06:53:28.830Z,3.44
2018-02-15T06:54:28.498Z,3.4
2018-02-15T06:55:28.790Z,3.37
2018-02-15T06:56:28.800Z,3.4
2018-02-15T06:57:28.525Z,3.44
2018-02-15T06:58:28.832Z,3.45
2018-02-15T06:59:29.118Z,3.48
2018-02-15T07:00:28.836Z,3.41
2018-02-15T07:01:28.855Z,3.51
2018-02-15T07:02:28.596Z,3.45
2018-02-15T07:03:28.865Z,3.5
2018-02-15T07:04:28.893Z,3.55
2018-02-15T07:05:29.246Z,3.55
2018-02-15T07:06:28.897Z,3.56
2018-02-15T07:07:29.260Z,3.53
2018-02-15T07:08:28.912Z,3.48
2018-02-15T07:09:28.962Z,3.53
2018-02-15T07:10:29.219Z,3.48
2018-02-15T07:11:28.939Z,3.6
2018-02-15T07:12:28.657Z,3.6
2018-02-15T07:13:28.712Z,3.58
2018-02-15T07:14:28.673Z,3.65
2018-02-15T07:15:28.972Z,3.65
2018-02-15T07:16:28.972Z,3.62
2018-02-15T07:17:28.994Z,3.62
2018-02-15T07:18:28.996Z,3.69
2018-02-15T07:19:29.017Z,3.65
2018-02-15T07:20:28.739Z,3.68
2018-02-15T07:21:28.746Z,3.68
2018-02-15T07:22:29.327Z,3.69
2018-02-15T07:23:29.044Z,3.68
2018-02-15T07:24:29.339Z,3.65
2018-02-15T07:25:29.070Z,3.68
2018-02-15T07:26:29.073Z,3.68
2018-02-15T07:27:28.792Z,3.65
2018-02-15T07:28:28.869Z,3.7
2018-02-15T07:29:28.809Z,3.73
2018-02-15T07:30:29.099Z,3.77
2018-02-15T07:31:29.129Z,3.78
2018-02-15T07:32:29.120Z,3.73
2018-02-15T07:33:29.183Z,3.74
2018-02-15T07:34:28.851Z,3.7
2018-02-15T07:35:28.860Z,3.73
2018-02-15T07:36:29.191Z,3.8
2018-02-15T07:37:29.173Z,3.83
2018-02-15T07:38:28.885Z,3.83
2018-02-15T07:39:29.192Z,3.83
2018-02-15T07:40:28.903Z,3.83
2018-02-15T07:41:29.482Z,3.8
2018-02-15T07:42:28.931Z,3.81
2018-02-15T07:43:29.000Z,3.83
2018-02-15T07:44:30.278Z,3.81
2018-02-15T07:45:29.715Z,3.8
2018-02-15T07:46:29.678Z,3.78
2018-02-15T07:47:29.623Z,3.78
2018-02-15T07:48:29.295Z,3.84
2018-02-15T07:49:29.394Z,3.91
2018-02-15T07:50:29.283Z,3.77
2018-02-15T07:51:29.573Z,3.8
2018-02-15T07:52:29.298Z,3.88
2018-02-15T07:53:29.305Z,3.88
2018-02-15T07:54:29.314Z,3.87
2018-02-15T07:55:29.035Z,3.84
2018-02-15T07:56:29.041Z,3.86
2018-02-15T07:57:29.056Z,3.83
2018-02-15T07:58:29.450Z,3.92
2018-02-15T07:59:29.074Z,3.94
2018-02-15T08:00:29.083Z,3.87
2018-02-15T08:01:29.374Z,3.84
2018-02-15T08:02:29.382Z,3.94
2018-02-15T08:03:29.250Z,3.96
2018-02-15T08:04:29.702Z,3.99
2018-02-15T08:05:29.696Z,3.94
2018-02-15T08:06:29.131Z,3.94
2018-02-15T08:07:29.425Z,4.01
2018-02-15T08:08:29.161Z,4.05
2018-02-15T08:09:29.734Z,3.96
2018-02-15T08:10:29.742Z,4.02
2018-02-15T08:11:29.466Z,4.01
2018-02-15T08:12:29.474Z,4.06
2018-02-15T08:13:29.197Z,4.12
2018-02-15T08:14:29.785Z,4.16
2018-02-15T08:15:29.785Z,4.2
2018-02-15T08:16:29.509Z,4.19
2018-02-15T08:17:29.519Z,4.22
2018-02-15T08:18:29.524Z,4.19
2018-02-15T08:19:29.825Z,4.3
2018-02-15T08:20:29.558Z,4.22
2018-02-15T08:21:29.844Z,4.19
2018-02-15T08:22:29.560Z,4.24
2018-02-15T08:23:29.853Z,4.32
2018-02-15T08:24:29.583Z,4.28
2018-02-15T08:25:29.875Z,4.28
2018-02-15T08:26:29.315Z,4.26
2018-02-15T08:27:29.606Z,4.32
2018-02-15T08:28:29.331Z,4.41
2018-02-15T08:29:29.623Z,4.32
2018-02-15T08:30:29.350Z,4.38
2018-02-15T08:31:29.642Z,4.4
2018-02-15T08:32:29.654Z,4.44
2018-02-15T08:33:29.387Z,4.48
2018-02-15T08:34:29.386Z,4.44
2018-02-15T08:35:29.402Z,4.49
2018-02-15T08:36:29.982Z,4.48
2018-02-15T08:37:29.426Z,4.5
2018-02-15T08:38:30.003Z,4.53
2018-02-15T08:39:29.722Z,4.5
2018-02-15T08:40:30.023Z,4.55
2018-02-15T08:41:30.026Z,4.53
2018-02-15T08:42:30.037Z,4.62
2018-02-15T08:43:29.771Z,4.55
2018-02-15T08:44:29.767Z,4.6
2018-02-15T08:45:29.801Z,4.62
2018-02-15T08:46:30.120Z,4.55
2018-02-15T08:47:30.079Z,4.6
2018-02-15T08:48:29.516Z,4.62
2018-02-15T08:49:29.816Z,4.6
2018-02-15T08:50:29.535Z,4.59
2018-02-15T08:51:30.115Z,4.56
2018-02-15T08:52:29.558Z,4.56
2018-02-15T08:53:29.852Z,4.67
2018-02-15T08:54:29.861Z,4.56
2018-02-15T08:55:30.161Z,4.58
2018-02-15T08:56:29.875Z,4.68
2018-02-15T08:57:29.603Z,4.7
2018-02-15T08:58:29.895Z,4.7
2018-02-15T08:59:30.193Z,4.73
2018-02-15T09:00:29.925Z,4.77
2018-02-15T09:01:29.640Z,4.7
2018-02-15T09:02:30.224Z,4.7
2018-02-15T09:03:30.254Z,4.7
2018-02-15T09:04:29.667Z,4.84
2018-02-15T09:05:29.675Z,4.82
2018-02-15T09:06:30.270Z,4.87
2018-02-15T09:07:29.994Z,4.86
2018-02-15T09:08:29.999Z,4.8
2018-02-15T09:09:29.716Z,4.9
2018-02-15T09:10:30.026Z,4.82
2018-02-15T09:11:30.311Z,4.86
2018-02-15T09:12:30.044Z,4.92
2018-02-15T09:13:30.044Z,4.9
2018-02-15T09:14:30.053Z,4.84
2018-02-15T09:15:29.772Z,4.93
2018-02-15T09:16:30.075Z,4.93
2018-02-15T09:17:29.790Z,4.9
2018-02-15T09:18:30.372Z,5.05
2018-02-15T09:19:29.811Z,4.9
2018-02-15T09:20:30.107Z,5.02
2018-02-15T09:21:29.830Z,5.02
2018-02-15T09:22:30.126Z,5.02
2018-02-15T09:23:30.139Z,5.02
2018-02-15T09:24:30.432Z,5.05
2018-02-15T09:25:30.156Z,5.1
2018-02-15T09:26:29.910Z,5.05
2018-02-15T09:27:30.465Z,5.14
2018-02-15T09:28:29.899Z,5.14
2018-02-15T09:29:30.241Z,5.11
2018-02-15T09:30:29.919Z,5.12
2018-02-15T09:31:30.496Z,5.14
2018-02-15T09:32:30.510Z,5.18
2018-02-15T09:33:30.234Z,5.18
2018-02-15T09:34:30.299Z,5.21
2018-02-15T09:35:30.262Z,5.21
2018-02-15T09:36:30.262Z,5.25
2018-02-15T09:37:30.560Z,5.2
2018-02-15T09:38:30.571Z,5.2
2018-02-15T09:39:30.012Z,5.21
2018-02-15T09:40:30.609Z,5.15
2018-02-15T09:41:30.025Z,5.18
2018-02-15T09:42:30.328Z,5.25
2018-02-15T09:43:30.615Z,5.23
2018-02-15T09:44:30.343Z,5.36
2018-02-15T09:45:30.353Z,5.36
2018-02-15T09:46:30.071Z,5.33
2018-02-15T09:47:30.369Z,5.35
2018-02-15T09:48:30.671Z,5.28
2018-02-15T09:49:30.154Z,5.41
2018-02-15T09:50:30.690Z,5.35
2018-02-15T09:51:30.412Z,5.47
2018-02-15T09:52:30.748Z,5.39
2018-02-15T09:53:30.431Z,5.41
2018-02-15T09:54:30.819Z,5.43
2018-02-15T09:55:30.742Z,5.48
2018-02-15T09:56:30.460Z,5.48
2018-02-15T09:57:30.182Z,5.51
2018-02-15T09:58:30.192Z,5.54
2018-02-15T09:59:30.837Z,5.57
2018-02-15T10:00:30.502Z,5.57
2018-02-15T10:01:30.508Z,5.51
2018-02-15T10:02:30.231Z,5.61
2018-02-15T10:03:30.530Z,5.59
2018-02-15T10:04:30.544Z,5.68
2018-02-15T10:05:30.262Z,5.72
2018-02-15T10:06:30.273Z,5.62
2018-02-15T10:07:30.280Z,5.68
2018-02-15T10:08:30.580Z,5.68
2018-02-15T10:09:30.886Z,5.75
2018-02-15T10:10:30.678Z,5.69
2018-02-15T10:11:30.606Z,5.73
2018-02-15T10:12:30.335Z,5.72
2018-02-15T10:13:30.342Z,5.73
2018-02-15T10:14:30.943Z,5.68
2018-02-15T10:15:30.699Z,5.76
2018-02-15T10:16:30.675Z,5.8
2018-02-15T10:17:30.962Z,5.8
2018-02-15T10:18:30.968Z,5.8
2018-02-15T10:19:30.692Z,5.87
2018-02-15T10:20:30.703Z,5.9
2018-02-15T10:21:30.424Z,5.86
2018-02-15T10:22:30.748Z,5.89
2018-02-15T10:23:30.444Z,5.93
2018-02-15T10:24:30.454Z,5.89
2018-02-15T10:25:30.515Z,5.89
2018-02-15T10:26:30.772Z,5.99
2018-02-15T10:27:30.776Z,5.94
2018-02-15T10:28:30.808Z,5.98
2018-02-15T10:29:30.792Z,6.04
2018-02-15T10:30:30.517Z,6.02
2018-02-15T10:31:30.823Z,5.91
2018-02-15T10:32:30.832Z,5.98
2018-02-15T10:33:30.840Z,5.98
2018-02-15T10:34:31.136Z,6.02
2018-02-15T10:35:30.904Z,6.02
2018-02-15T10:36:30.870Z,6.12
2018-02-15T10:37:30.875Z,6.09
2018-02-15T10:38:30.902Z,6.12
2018-02-15T10:39:30.898Z,6.09
2018-02-15T10:40:30.686Z,6.17
2018-02-15T10:41:31.209Z,6.17
2018-02-15T10:42:30.645Z,6.27
2018-02-15T10:43:30.952Z,6.27
2018-02-15T10:44:31.267Z,6.27
2018-02-15T10:45:31.305Z,6.3
2018-02-15T10:46:31.256Z,6.33
2018-02-15T10:47:30.694Z,6.31
2018-02-15T10:48:30.987Z,6.38
2018-02-15T10:49:31.300Z,6.42
2018-02-15T10:50:31.011Z,6.31
2018-02-15T10:51:31.023Z,6.48
2018-02-15T10:52:30.745Z,6.49
2018-02-15T10:53:31.331Z,6.49
2018-02-15T10:54:31.341Z,6.52
2018-02-15T10:55:31.355Z,6.56
2018-02-15T10:56:30.788Z,6.59
2018-02-15T10:57:31.372Z,6.57
2018-02-15T10:58:30.810Z,6.57
2018-02-15T10:59:31.104Z,6.59
2018-02-15T11:00:31.404Z,6.59
2018-02-15T11:01:31.130Z,6.64
2018-02-15T11:02:31.142Z,6.69
2018-02-15T11:03:30.864Z,6.62
2018-02-15T11:04:31.160Z,6.64
2018-02-15T11:05:30.882Z,6.64
2018-02-15T11:06:31.471Z,6.67
2018-02-15T11:07:30.905Z,6.66
2018-02-15T11:08:30.917Z,6.79
2018-02-15T11:09:31.505Z,6.72
2018-02-15T11:10:31.510Z,6.72
2018-02-15T11:11:30.948Z,6.77
2018-02-15T11:12:31.244Z,6.75
2018-02-15T11:13:30.974Z,6.72
2018-02-15T11:14:31.266Z,6.72
2018-02-15T11:15:30.991Z,6.82
2018-02-15T11:16:31.575Z,6.85
2018-02-15T11:17:31.011Z,6.85
2018-02-15T11:18:31.310Z,6.81
2018-02-15T11:19:31.322Z,6.88
2018-02-15T11:20:31.334Z,6.88
2018-02-15T11:21:31.436Z,6.88
2018-02-15T11:22:31.068Z,6.89
2018-02-15T11:23:31.658Z,6.95
2018-02-15T11:24:31.375Z,6.93
2018-02-15T11:25:31.150Z,6.96
2018-02-15T11:26:31.402Z,6.89
2018-02-15T11:27:31.120Z,6.99
2018-02-15T11:28:31.705Z,7.02
2018-02-15T11:29:31.720Z,7.02
2018-02-15T11:30:31.442Z,7.05
2018-02-15T11:31:31.455Z,7.03
2018-02-15T11:32:31.852Z,7.03
2018-02-15T11:33:31.764Z,7.02
2018-02-15T11:34:31.484Z,7.05
2018-02-15T11:35:31.502Z,7.1
2018-02-15T11:36:31.520Z,7.18
2018-02-15T11:37:31.521Z,7.15
2018-02-15T11:38:31.241Z,7.23
2018-02-15T11:39:31.874Z,7.2
2018-02-15T11:40:31.848Z,7.17
2018-02-15T11:41:31.277Z,7.15
2018-02-15T11:42:31.290Z,7.14
2018-02-15T11:43:31.592Z,7.2
2018-02-15T11:44:31.604Z,7.24
2018-02-15T11:45:31.320Z,7.2
2018-02-15T11:46:31.632Z,7.25
2018-02-15T11:47:31.935Z,7.25
2018-02-15T11:48:31.945Z,7.32
2018-02-15T11:49:31.685Z,7.32
2018-02-15T11:50:31.670Z,7.35
2018-02-15T11:51:31.389Z,7.35
2018-02-15T11:52:31.983Z,7.36
2018-02-15T11:53:31.695Z,7.42
2018-02-15T11:54:31.712Z,7.47
2018-02-15T11:55:32.005Z,7.48
2018-02-15T11:56:31.788Z,7.39
2018-02-15T11:57:31.744Z,7.43
2018-02-15T11:58:32.045Z,7.45
2018-02-15T11:59:32.064Z,7.39
2018-02-15T12:00:31.491Z,7.48
2018-02-15T12:01:32.089Z,7.45
2018-02-15T12:02:32.084Z,7.43
2018-02-15T12:03:31.811Z,7.45
2018-02-15T12:04:31.536Z,7.5
2018-02-15T12:05:31.877Z,7.54
2018-02-15T12:06:32.135Z,7.5
2018-02-15T12:07:32.142Z,7.53
2018-02-15T12:08:31.867Z,7.56
2018-02-15T12:09:32.168Z,7.53
2018-02-15T12:10:31.892Z,7.48
2018-02-15T12:11:31.922Z,7.51
2018-02-15T12:12:31.920Z,7.5
2018-02-15T12:13:31.639Z,7.53
2018-02-15T12:14:32.226Z,7.57
2018-02-15T12:15:31.661Z,7.54
2018-02-15T12:16:32.012Z,7.47
2018-02-15T12:17:31.688Z,7.5
2018-02-15T12:18:31.995Z,7.56
2018-02-15T12:19:32.287Z,7.57
2018-02-15T12:20:32.043Z,7.57
2018-02-15T12:21:32.019Z,7.63
2018-02-15T12:22:32.034Z,7.57
2018-02-15T12:23:32.043Z,7.69
2018-02-15T12:24:31.768Z,7.72
2018-02-15T12:25:32.355Z,7.6
2018-02-15T12:26:32.073Z,7.72
2018-02-15T12:27:31.801Z,7.67
2018-02-15T12:28:32.113Z,7.69
2018-02-15T12:29:32.110Z,7.72
2018-02-15T12:30:31.835Z,7.75
2018-02-15T12:31:31.904Z,7.72
2018-02-15T12:32:32.432Z,7.72
2018-02-15T12:33:32.158Z,7.76
2018-02-15T12:34:32.458Z,7.69
2018-02-15T12:35:32.184Z,7.72
2018-02-15T12:36:32.481Z,7.75
2018-02-15T12:37:32.493Z,7.7
2018-02-15T12:38:32.220Z,7.73
2018-02-15T12:39:31.947Z,7.69
2018-02-15T12:40:32.242Z,7.7
2018-02-15T12:41:32.538Z,7.69
2018-02-15T12:42:32.552Z,7.73
2018-02-15T12:43:32.280Z,7.8
2018-02-15T12:44:32.001Z,7.77
2018-02-15T12:45:32.586Z,7.76
2018-02-15T12:46:32.311Z,7.79
2018-02-15T12:47:32.036Z,7.79
2018-02-15T12:48:32.334Z,7.82
2018-02-15T12:49:32.345Z,7.82
2018-02-15T12:50:32.357Z,7.77
2018-02-15T12:51:32.369Z,7.77
2018-02-15T12:52:32.405Z,7.82
2018-02-15T12:53:32.682Z,7.8
2018-02-15T12:54:32.406Z,7.8
2018-02-15T12:55:32.421Z,7.95
2018-02-15T12:56:32.427Z,7.85
2018-02-15T12:57:32.155Z,7.82
2018-02-15T12:58:32.457Z,7.91
2018-02-15T12:59:32.475Z,7.85
2018-02-15T13:00:32.486Z,7.88
2018-02-15T13:01:32.492Z,7.88
2018-02-15T13:02:32.498Z,7.9
2018-02-15T13:03:32.801Z,7.85
2018-02-15T13:04:32.563Z,7.88
2018-02-15T13:05:32.251Z,7.83
2018-02-15T13:06:32.838Z,7.93
2018-02-15T13:07:32.576Z,7.95
2018-02-15T13:08:32.288Z,7.87
2018-02-15T13:09:32.872Z,7.91
2018-02-15T13:10:32.879Z,7.91
2018-02-15T13:11:32.321Z,7.93
2018-02-15T13:12:32.332Z,7.93
2018-02-15T13:13:32.630Z,7.87
2018-02-15T13:14:32.643Z,7.91
2018-02-15T13:15:32.942Z,7.9
2018-02-15T13:16:32.384Z,7.93
2018-02-15T13:17:32.969Z,7.97
2018-02-15T13:18:32.419Z,7.98
2018-02-15T13:19:32.702Z,7.93
2018-02-15T13:20:32.714Z,7.97
2018-02-15T13:21:33.064Z,7.83